createdAt,value
2023-03-17T00:00:54.635Z,19.08
2023-03-17T00:03:27.729Z,20.10
2023-03-17T00:05:59.851Z,20.75
2023-03-17T00:08:34.743Z,18.27
2023-03-17T00:11:10.164Z,20.05
2023-03-17T00:13:40.512Z,19.08
2023-03-17T00:16:19.325Z,21.95
2023-03-17T00:18:51.184Z,22.80
2023-03-17T00:21:32.855Z,25.90
2023-03-17T00:24:03.248Z,38.75
2023-03-17T00:26:33.662Z,48.85
2023-03-17T00:29:05.691Z,56.63
2023-03-17T00:31:36.692Z,64.90
2023-03-17T00:34:08.218Z,45.65
2023-03-17T00:36:38.751Z,49.45
2023-03-17T00:39:17.633Z,41.35
2023-03-17T00:44:17.642Z,42.60
2023-03-17T00:46:47.834Z,42.15
2023-03-17T00:49:21.433Z,42.28
2023-03-17T00:51:52.282Z,57.55
2023-03-17T00:54:22.849Z,62.45
2023-03-17T00:56:53.091Z,52.83
2023-03-17T00:59:27.936Z,50.97
2023-03-17T01:01:58.685Z,35.83
2023-03-17T01:04:29.010Z,32.08
2023-03-17T01:06:59.483Z,29.55
2023-03-17T01:09:30.939Z,42.85
2023-03-17T01:12:01.692Z,34.05
2023-03-17T01:14:31.892Z,31.92
2023-03-17T01:17:02.344Z,33.38
2023-03-17T01:19:32.787Z,21.10
2023-03-17T01:22:03.337Z,23.25
2023-03-17T01:24:33.473Z,32.40
2023-03-17T01:27:05.115Z,22.33
2023-03-17T01:29:35.289Z,54.78
2023-03-17T01:35:46.183Z,37.03
2023-03-17T01:38:16.410Z,36.20
2023-03-17T01:40:51.783Z,30.58
2023-03-17T01:43:30.900Z,25.67
2023-03-17T01:46:22.720Z,29.75
2023-03-17T01:49:17.517Z,38.25
2023-03-17T01:51:57.686Z,25.17
2023-03-17T01:54:45.284Z,25.15
2023-03-17T01:57:23.427Z,29.17
2023-03-17T02:00:10.174Z,22.65
2023-03-17T02:02:46.476Z,23.75
2023-03-17T02:05:27.770Z,25.48
2023-03-17T02:07:57.926Z,25.42
2023-03-17T02:10:29.943Z,20.67
2023-03-17T02:13:05.675Z,25.55
2023-03-17T02:15:41.601Z,20.08
2023-03-17T02:18:12.875Z,22.48
2023-03-17T02:20:46.744Z,25.42
2023-03-17T02:23:22.564Z,23.85
2023-03-17T02:25:54.226Z,16.80
2023-03-17T02:28:30.123Z,20.20
2023-03-17T02:31:00.359Z,19.00
2023-03-17T02:33:30.799Z,13.43
2023-03-17T02:36:01.077Z,23.33
2023-03-17T02:38:31.963Z,14.25
2023-03-17T02:41:02.070Z,16.42
2023-03-17T02:43:32.506Z,19.95
2023-03-17T02:46:02.698Z,13.68
2023-03-17T02:48:35.029Z,9.40
2023-03-17T02:51:05.587Z,9.27
2023-03-17T02:53:35.783Z,9.07
2023-03-17T02:56:06.358Z,8.20
2023-03-17T02:58:36.634Z,7.90
2023-03-17T03:01:06.891Z,7.22
2023-03-17T03:03:37.364Z,5.35
2023-03-17T03:06:07.778Z,7.82
2023-03-17T03:08:37.969Z,8.45
2023-03-17T03:11:08.170Z,6.82
2023-03-17T03:13:39.140Z,6.00
2023-03-17T03:16:09.436Z,8.75
2023-03-17T03:18:39.531Z,7.10
2023-03-17T03:21:09.929Z,6.88
2023-03-17T03:23:40.035Z,11.00
2023-03-17T03:26:10.195Z,11.20
2023-03-17T03:28:40.350Z,9.88
2023-03-17T03:31:11.429Z,8.68
2023-03-17T03:33:42.432Z,7.13
2023-03-17T03:36:13.644Z,15.60
2023-03-17T03:38:43.781Z,6.72
2023-03-17T03:41:14.464Z,7.85
2023-03-17T03:43:44.650Z,4.68
2023-03-17T03:46:15.869Z,6.63
2023-03-17T03:48:46.183Z,6.88
2023-03-17T03:51:16.359Z,5.20
2023-03-17T03:53:48.443Z,6.47
2023-03-17T03:56:18.507Z,5.82
2023-03-17T03:58:48.911Z,8.40
2023-03-17T04:01:19.773Z,4.10
2023-03-17T04:03:49.991Z,8.63
2023-03-17T04:06:20.227Z,6.10
2023-03-17T04:08:50.445Z,5.38
2023-03-17T04:11:20.644Z,6.35
2023-03-17T04:13:50.796Z,5.95
2023-03-17T04:16:20.981Z,6.38
2023-03-17T04:18:51.414Z,8.90
2023-03-17T04:21:21.934Z,5.25
2023-03-17T04:23:52.106Z,8.18
2023-03-17T04:26:23.320Z,8.98
2023-03-17T04:28:53.463Z,6.35
2023-03-17T04:31:23.984Z,10.98
2023-03-17T04:33:54.115Z,10.38
2023-03-17T04:36:24.967Z,6.90
2023-03-17T04:38:55.206Z,13.23
2023-03-17T04:41:25.362Z,10.57
2023-03-17T04:43:55.512Z,10.15
2023-03-17T04:46:25.809Z,9.93
2023-03-17T04:48:57.483Z,14.60
2023-03-17T04:51:28.101Z,9.70
2023-03-17T04:53:58.358Z,8.77
2023-03-17T04:56:31.212Z,8.98
2023-03-17T04:59:02.483Z,14.43
2023-03-17T05:01:32.621Z,10.35
2023-03-17T05:04:02.718Z,10.82
2023-03-17T05:06:32.963Z,12.68
2023-03-17T05:09:04.206Z,14.32
2023-03-17T05:11:34.428Z,13.32
2023-03-17T05:14:04.575Z,11.13
2023-03-17T05:16:34.795Z,13.02
2023-03-17T05:19:06.491Z,15.55
2023-03-17T05:21:36.719Z,10.98
2023-03-17T05:24:07.037Z,14.25
2023-03-17T05:26:37.511Z,13.73
2023-03-17T05:29:09.133Z,14.10
2023-03-17T05:31:39.293Z,15.27
2023-03-17T05:34:09.467Z,15.30
2023-03-17T05:36:39.782Z,16.08
2023-03-17T05:39:14.008Z,21.98
2023-03-17T05:41:44.677Z,20.48
2023-03-17T05:44:14.749Z,18.92
2023-03-17T05:46:44.951Z,13.38
2023-03-17T05:49:15.459Z,15.38
2023-03-17T05:51:45.560Z,15.63
2023-03-17T05:54:15.839Z,12.57
2023-03-17T05:56:46.898Z,12.27
2023-03-17T05:59:18.630Z,12.23
2023-03-17T06:01:48.795Z,18.33
2023-03-17T06:04:18.876Z,11.40
2023-03-17T06:06:49.041Z,13.73
2023-03-17T06:09:19.450Z,14.77
2023-03-17T06:11:49.640Z,16.45
2023-03-17T06:14:19.781Z,16.02
2023-03-17T06:16:51.016Z,20.13
2023-03-17T06:19:21.185Z,15.75
2023-03-17T06:21:51.237Z,16.15
2023-03-17T06:24:21.851Z,18.80
2023-03-17T06:26:53.056Z,29.30
2023-03-17T06:29:24.873Z,16.95
2023-03-17T06:31:56.088Z,15.98
2023-03-17T06:34:27.686Z,19.40
2023-03-17T06:36:58.743Z,16.30
2023-03-17T06:39:29.115Z,18.98
2023-03-17T06:41:59.219Z,12.95
2023-03-17T06:44:29.349Z,18.58
2023-03-17T06:46:59.491Z,13.27
2023-03-17T06:49:29.650Z,20.33
2023-03-17T06:51:59.806Z,11.85
2023-03-17T06:54:29.945Z,12.10
2023-03-17T06:57:00.152Z,13.52
2023-03-17T06:59:30.887Z,14.38
2023-03-17T07:02:01.172Z,14.15
2023-03-17T07:04:32.094Z,15.23
2023-03-17T07:07:03.336Z,16.73
2023-03-17T07:09:37.413Z,21.40
2023-03-17T07:12:07.908Z,16.20
2023-03-17T07:14:41.915Z,17.95
2023-03-17T07:17:13.746Z,17.65
2023-03-17T07:19:44.014Z,17.92
2023-03-17T07:22:14.168Z,14.57
2023-03-17T07:24:45.056Z,13.82
2023-03-17T07:27:16.594Z,16.40
2023-03-17T07:29:46.924Z,18.00
2023-03-17T07:32:17.285Z,14.38
2023-03-17T07:34:47.394Z,20.52
2023-03-17T07:37:17.797Z,18.83
2023-03-17T07:39:48.447Z,20.80
2023-03-17T07:42:18.839Z,21.85
2023-03-17T07:44:49.026Z,16.05
2023-03-17T07:47:19.947Z,14.45
2023-03-17T07:49:50.205Z,18.35
2023-03-17T07:52:20.582Z,18.58
2023-03-17T07:54:52.401Z,19.30
2023-03-17T07:57:22.905Z,19.70
2023-03-17T07:59:53.209Z,34.03
2023-03-17T08:02:23.422Z,25.27
2023-03-17T08:04:54.217Z,16.45
2023-03-17T08:07:24.786Z,17.05
2023-03-17T08:09:55.181Z,20.17
2023-03-17T08:12:25.746Z,26.35
2023-03-17T08:14:56.063Z,21.58
2023-03-17T08:17:27.574Z,20.00
2023-03-17T08:19:57.772Z,18.75
2023-03-17T08:22:27.938Z,25.88
2023-03-17T08:24:58.867Z,20.92
2023-03-17T08:27:29.080Z,19.17
2023-03-17T08:29:59.262Z,22.95
2023-03-17T08:32:29.463Z,17.98
2023-03-17T08:35:00.768Z,18.67
2023-03-17T08:37:30.951Z,23.88
2023-03-17T08:40:01.520Z,15.68
2023-03-17T08:42:31.973Z,18.17
2023-03-17T08:45:02.143Z,21.42
2023-03-17T08:47:33.302Z,15.30
2023-03-17T08:50:07.032Z,20.35
2023-03-17T08:52:38.094Z,22.00
2023-03-17T08:55:09.202Z,17.00
2023-03-17T08:57:39.725Z,27.48
2023-03-17T09:00:11.645Z,18.70
2023-03-17T09:02:43.824Z,23.77
2023-03-17T09:05:16.188Z,24.05
2023-03-17T09:07:47.380Z,20.23
2023-03-17T09:10:22.721Z,21.95
2023-03-17T09:12:53.531Z,17.30
2023-03-17T09:15:23.752Z,19.90
2023-03-17T09:17:54.096Z,19.20
2023-03-17T09:20:24.587Z,16.95
2023-03-17T09:22:54.955Z,14.25
2023-03-17T09:25:26.338Z,21.73
2023-03-17T09:27:56.657Z,16.98
2023-03-17T09:30:27.179Z,15.43
2023-03-17T09:32:57.348Z,20.42
2023-03-17T09:35:28.912Z,17.70
2023-03-17T09:38:00.823Z,18.70
2023-03-17T09:40:36.446Z,15.27
2023-03-17T09:43:29.888Z,24.13
2023-03-17T09:46:22.798Z,15.13
2023-03-17T09:49:07.941Z,14.07
2023-03-17T09:51:38.864Z,14.20
2023-03-17T09:54:22.874Z,11.45
2023-03-17T09:57:16.790Z,13.68
2023-03-17T09:59:55.195Z,13.02
2023-03-17T10:02:34.458Z,14.50
2023-03-17T10:05:14.458Z,11.35
2023-03-17T10:08:30.508Z,12.35
2023-03-17T10:11:19.364Z,11.88
2023-03-17T10:14:04.182Z,7.25
2023-03-17T10:16:46.960Z,14.73
2023-03-17T10:19:40.761Z,11.32
2023-03-17T10:22:22.024Z,10.18
2023-03-17T10:24:57.104Z,6.75
2023-03-17T10:27:28.770Z,9.82
2023-03-17T10:29:58.909Z,9.38
2023-03-17T10:32:32.057Z,9.55
2023-03-17T10:35:02.885Z,8.10
2023-03-17T10:37:36.736Z,9.85
2023-03-17T10:40:11.124Z,9.98
2023-03-17T10:42:53.277Z,10.05
2023-03-17T10:45:38.401Z,5.65
2023-03-17T10:48:14.936Z,8.17
2023-03-17T10:50:49.342Z,10.52
2023-03-17T10:53:28.457Z,9.35
2023-03-17T10:56:09.870Z,10.20
2023-03-17T10:58:51.577Z,10.45
2023-03-17T11:01:28.037Z,9.75
2023-03-17T11:04:02.638Z,10.80
2023-03-17T11:06:39.434Z,9.77
2023-03-17T11:09:11.167Z,7.32
2023-03-17T11:11:49.154Z,9.23
2023-03-17T11:14:20.050Z,10.38
2023-03-17T11:16:56.208Z,12.95
2023-03-17T11:19:48.811Z,7.22
2023-03-17T11:22:56.670Z,8.50
2023-03-17T11:25:28.620Z,8.05
2023-03-17T11:28:20.894Z,7.10
2023-03-17T11:30:50.959Z,10.57
2023-03-17T11:33:42.792Z,8.60
2023-03-17T11:36:18.792Z,7.10
2023-03-17T11:38:58.049Z,7.90
2023-03-17T11:41:46.146Z,8.57
2023-03-17T11:44:42.373Z,8.38
2023-03-17T11:47:38.504Z,8.93
2023-03-17T11:50:41.158Z,7.10
2023-03-17T11:53:59.238Z,11.55
2023-03-17T11:57:01.475Z,9.13
2023-03-17T11:59:46.018Z,10.38
2023-03-17T12:02:20.893Z,14.65
2023-03-17T12:05:02.560Z,8.65
2023-03-17T12:07:41.769Z,6.32
2023-03-17T12:10:38.033Z,7.57
2023-03-17T12:13:40.384Z,10.30
2023-03-17T12:16:26.607Z,8.30
2023-03-17T12:19:08.942Z,10.15
2023-03-17T12:21:46.743Z,9.52
2023-03-17T12:24:26.992Z,14.60
2023-03-17T12:27:06.133Z,9.35
2023-03-17T12:30:08.055Z,10.88
2023-03-17T12:32:46.083Z,13.90
2023-03-17T12:35:22.240Z,11.80
2023-03-17T12:37:53.746Z,12.45
2023-03-17T12:40:41.474Z,7.32
2023-03-17T12:43:24.596Z,9.00
2023-03-17T12:46:22.413Z,10.90
2023-03-17T12:49:11.050Z,10.07
2023-03-17T12:51:54.287Z,9.48
2023-03-17T12:54:34.633Z,12.00
2023-03-17T12:57:13.668Z,14.95
2023-03-17T12:59:46.864Z,13.10
2023-03-17T13:02:39.894Z,11.38
2023-03-17T13:05:15.628Z,13.00
2023-03-17T13:08:08.528Z,11.38
2023-03-17T13:10:51.241Z,13.30
2023-03-17T13:13:36.551Z,15.65
2023-03-17T13:16:27.556Z,15.65
2023-03-17T13:19:25.585Z,12.20
2023-03-17T13:22:05.320Z,18.20
2023-03-17T13:24:48.841Z,14.73
2023-03-17T13:27:48.503Z,15.88
2023-03-17T13:30:26.573Z,13.50
2023-03-17T13:33:23.848Z,16.50
2023-03-17T13:36:08.354Z,19.65
2023-03-17T13:39:18.845Z,20.80
2023-03-17T13:41:50.203Z,15.25
2023-03-17T13:44:38.632Z,12.57
2023-03-17T13:47:28.580Z,14.00
2023-03-17T13:50:07.847Z,11.02
2023-03-17T13:52:55.703Z,11.73
2023-03-17T13:55:36.800Z,13.38
2023-03-17T13:58:11.587Z,10.35
2023-03-17T14:00:47.077Z,12.20
2023-03-17T14:03:29.289Z,14.07
2023-03-17T14:06:04.864Z,12.50
2023-03-17T14:08:56.061Z,11.90
2023-03-17T14:11:36.394Z,7.03
2023-03-17T14:14:33.219Z,7.15
2023-03-17T14:17:19.455Z,10.40
2023-03-17T14:20:06.469Z,10.23
2023-03-17T14:22:45.200Z,11.82
2023-03-17T14:25:38.846Z,10.50
2023-03-17T14:28:15.572Z,9.32
2023-03-17T14:30:55.100Z,8.40
2023-03-17T14:33:33.835Z,11.02
2023-03-17T14:36:08.085Z,9.15
2023-03-17T14:38:45.934Z,8.30
2023-03-17T14:41:30.042Z,10.65
2023-03-17T14:44:01.875Z,7.57
2023-03-17T14:46:37.805Z,9.93
2023-03-17T14:49:21.298Z,6.82
2023-03-17T14:51:58.426Z,9.35
2023-03-17T14:54:33.219Z,9.45
2023-03-17T14:57:08.145Z,7.47
2023-03-17T14:59:41.536Z,7.75
2023-03-17T15:02:28.167Z,8.65
2023-03-17T15:05:27.561Z,13.80
2023-03-17T15:07:57.669Z,11.10
2023-03-17T15:10:31.504Z,10.13
2023-03-17T15:13:04.627Z,11.18
2023-03-17T15:15:38.995Z,14.95
2023-03-17T15:18:14.587Z,12.32
2023-03-17T15:20:45.965Z,10.18
2023-03-17T15:23:25.282Z,13.13
2023-03-17T15:25:57.018Z,7.38
2023-03-17T15:28:31.991Z,11.38
2023-03-17T15:31:13.421Z,8.80
2023-03-17T15:33:43.502Z,7.50
2023-03-17T15:36:31.327Z,10.48
2023-03-17T15:39:03.593Z,10.32
2023-03-17T15:41:33.706Z,11.30
2023-03-17T15:44:05.357Z,10.77
2023-03-17T15:46:35.842Z,11.68
2023-03-17T15:49:11.752Z,10.40
2023-03-17T15:51:41.927Z,17.23
2023-03-17T15:54:15.408Z,9.48
2023-03-17T15:56:45.498Z,10.98
2023-03-17T15:59:15.858Z,8.65
2023-03-17T16:01:46.994Z,8.45
2023-03-17T16:04:18.161Z,11.13
2023-03-17T16:06:49.275Z,11.52
2023-03-17T16:09:19.389Z,10.63
2023-03-17T16:11:52.277Z,12.45
2023-03-17T16:14:22.365Z,9.55
2023-03-17T16:16:52.867Z,13.88
2023-03-17T16:19:25.144Z,15.63
2023-03-17T16:21:55.916Z,10.05
2023-03-17T16:24:27.232Z,14.70
2023-03-17T16:26:58.388Z,14.68
2023-03-17T16:29:28.568Z,9.73
2023-03-17T16:31:58.629Z,17.45
2023-03-17T16:34:28.831Z,16.73
2023-03-17T16:36:59.013Z,15.57
2023-03-17T16:39:29.826Z,14.40
2023-03-17T16:42:01.364Z,11.43
2023-03-17T16:44:32.087Z,11.57
2023-03-17T16:47:02.272Z,20.70
2023-03-17T16:49:32.496Z,13.05
2023-03-17T16:52:02.656Z,13.48
2023-03-17T16:54:33.661Z,11.75
2023-03-17T16:57:06.542Z,14.73
2023-03-17T16:59:37.762Z,15.63
2023-03-17T17:02:18.452Z,10.05
2023-03-17T17:04:48.585Z,12.38
2023-03-17T17:07:18.641Z,13.25
2023-03-17T17:09:48.845Z,14.38
2023-03-17T17:12:18.966Z,16.10
2023-03-17T17:14:52.678Z,14.10
2023-03-17T17:17:23.117Z,13.48
2023-03-17T17:19:53.270Z,13.57
2023-03-17T17:22:23.357Z,13.75
2023-03-17T17:24:53.502Z,12.07
2023-03-17T17:27:23.640Z,15.35
2023-03-17T17:29:53.801Z,22.05
2023-03-17T17:32:26.009Z,16.70
2023-03-17T17:34:56.109Z,12.45
2023-03-17T17:37:26.316Z,15.00
2023-03-17T17:39:56.552Z,13.23
2023-03-17T17:42:26.711Z,12.45
2023-03-17T17:44:56.805Z,17.52
2023-03-17T17:47:26.967Z,20.48
2023-03-17T17:49:59.478Z,16.33
2023-03-17T17:52:29.580Z,13.50
2023-03-17T17:55:01.161Z,9.55
2023-03-17T17:57:31.267Z,12.65
2023-03-17T18:00:01.442Z,20.27
2023-03-17T18:02:31.535Z,14.60
2023-03-17T18:05:01.738Z,13.77
2023-03-17T18:07:32.790Z,12.07
2023-03-17T18:10:03.811Z,12.43
2023-03-17T18:12:34.075Z,17.95
2023-03-17T18:15:05.809Z,17.20
2023-03-17T18:17:36.693Z,16.65
2023-03-17T18:20:10.384Z,17.67
2023-03-17T18:22:41.259Z,19.00
2023-03-17T18:25:14.051Z,15.13
2023-03-17T18:27:45.045Z,16.33
2023-03-17T18:30:25.441Z,13.25
2023-03-17T18:33:00.741Z,15.85
2023-03-17T18:35:31.735Z,13.07
2023-03-17T18:38:02.270Z,11.77
2023-03-17T18:40:33.434Z,14.95
2023-03-17T18:43:03.829Z,16.02
2023-03-17T18:45:34.475Z,16.55
2023-03-17T18:48:04.773Z,16.27
2023-03-17T18:50:34.985Z,14.32
2023-03-17T18:53:05.137Z,18.17
2023-03-17T18:55:35.307Z,14.18
2023-03-17T18:58:06.529Z,21.20
2023-03-17T19:00:37.622Z,21.08
2023-03-17T19:03:07.835Z,20.20
2023-03-17T19:05:38.629Z,20.60
2023-03-17T19:08:08.676Z,22.65
2023-03-17T19:10:38.843Z,14.82
2023-03-17T19:13:10.258Z,22.92
2023-03-17T19:15:42.767Z,18.98
2023-03-17T19:18:12.981Z,20.38
2023-03-17T19:20:43.533Z,24.85
2023-03-17T19:23:13.794Z,23.92
2023-03-17T19:25:46.868Z,29.08
2023-03-17T19:28:18.195Z,20.40
2023-03-17T19:30:51.817Z,17.58
2023-03-17T19:33:22.125Z,21.85
2023-03-17T19:35:58.794Z,24.73
2023-03-17T19:38:29.179Z,24.48
2023-03-17T19:41:00.497Z,26.38
2023-03-17T19:43:40.377Z,23.50
2023-03-17T19:46:12.669Z,19.40
2023-03-17T19:48:42.853Z,31.50
2023-03-17T19:51:15.508Z,26.10
2023-03-17T19:53:46.000Z,23.50
2023-03-17T19:56:16.667Z,23.48
2023-03-17T19:58:47.512Z,23.83
2023-03-17T20:01:18.252Z,25.02
2023-03-17T20:03:48.735Z,35.88
2023-03-17T20:06:18.932Z,22.25
2023-03-17T20:08:49.071Z,32.97
2023-03-17T20:11:19.622Z,21.48
2023-03-17T20:13:50.923Z,25.98
2023-03-17T20:16:21.162Z,30.13
2023-03-17T20:18:51.522Z,37.50
2023-03-17T20:21:21.725Z,23.00
2023-03-17T20:23:53.371Z,18.55
2023-03-17T20:26:23.550Z,27.60
2023-03-17T20:28:55.820Z,25.77
2023-03-17T20:31:25.941Z,20.95
2023-03-17T20:33:57.052Z,28.30
2023-03-17T20:36:27.586Z,27.42
2023-03-17T20:38:58.707Z,26.08
2023-03-17T20:41:29.191Z,21.25
2023-03-17T20:43:59.223Z,27.60
2023-03-17T20:46:29.413Z,28.73
2023-03-17T20:48:59.560Z,29.00
2023-03-17T20:51:29.685Z,25.10
2023-03-17T20:54:00.920Z,24.65
2023-03-17T20:56:35.862Z,23.55
2023-03-17T20:59:09.673Z,24.67
2023-03-17T21:01:40.752Z,29.42
2023-03-17T21:04:12.583Z,29.55
2023-03-17T21:06:43.029Z,37.30
2023-03-17T21:09:13.458Z,25.63
2023-03-17T21:11:43.601Z,27.73
2023-03-17T21:14:16.630Z,29.40
2023-03-17T21:16:47.426Z,25.10
2023-03-17T21:19:17.660Z,22.75
2023-03-17T21:21:47.782Z,36.33
2023-03-17T21:24:31.908Z,24.45
2023-03-17T21:27:05.405Z,43.15
2023-03-17T21:29:36.286Z,32.22
2023-03-17T21:32:09.740Z,29.85
2023-03-17T21:34:39.863Z,23.17
2023-03-17T21:37:13.413Z,30.85
2023-03-17T21:39:44.748Z,23.52
2023-03-17T21:42:17.394Z,31.80
2023-03-17T21:44:48.479Z,33.45
2023-03-17T21:47:19.937Z,24.90
2023-03-17T21:49:50.228Z,62.63
2023-03-17T21:52:21.798Z,31.80
2023-03-17T21:54:52.025Z,26.50
2023-03-17T21:57:23.053Z,32.42
2023-03-17T21:59:53.502Z,30.77
2023-03-17T22:02:28.357Z,34.55
2023-03-17T22:04:58.635Z,26.40
2023-03-17T22:07:29.467Z,25.50
2023-03-17T22:10:01.117Z,22.05
2023-03-17T22:12:35.299Z,17.25
2023-03-17T22:15:06.524Z,26.90
2023-03-17T22:17:36.774Z,25.40
2023-03-17T22:20:09.082Z,22.17
2023-03-17T22:22:39.268Z,19.17
2023-03-17T22:25:09.769Z,21.25
2023-03-17T22:27:40.238Z,34.50
2023-03-17T22:30:12.024Z,24.17
2023-03-17T22:32:42.774Z,27.75
2023-03-17T22:35:13.794Z,23.35
2023-03-17T22:37:43.867Z,32.00
2023-03-17T22:40:14.957Z,26.33
2023-03-17T22:42:45.164Z,36.03
2023-03-17T22:45:16.209Z,29.08
2023-03-17T22:47:46.302Z,30.67
2023-03-17T22:50:17.001Z,32.35
2023-03-17T22:52:47.414Z,35.03
2023-03-17T22:55:17.771Z,24.60
2023-03-17T22:57:48.074Z,26.98
2023-03-17T23:00:18.610Z,27.73
2023-03-17T23:02:48.869Z,24.42
2023-03-17T23:05:19.555Z,26.20
2023-03-17T23:07:51.756Z,20.27
2023-03-17T23:10:24.582Z,26.85
2023-03-17T23:12:56.477Z,27.63
2023-03-17T23:15:26.868Z,21.20
2023-03-17T23:17:57.428Z,18.88
2023-03-17T23:20:28.362Z,23.27
2023-03-17T23:22:58.670Z,16.27
2023-03-17T23:25:28.736Z,21.67
2023-03-17T23:27:58.995Z,18.65
2023-03-17T23:30:30.043Z,24.02
2023-03-17T23:33:01.437Z,19.75
2023-03-17T23:35:31.962Z,24.13
2023-03-17T23:38:04.196Z,33.67
2023-03-17T23:40:34.774Z,17.58
2023-03-17T23:43:05.668Z,22.25
2023-03-17T23:45:35.831Z,21.35
2023-03-17T23:48:05.989Z,24.05
2023-03-17T23:50:36.222Z,20.23
2023-03-17T23:53:06.306Z,24.35
2023-03-17T23:55:36.532Z,18.60
2023-03-17T23:58:06.792Z,16.58
